Bellevue, Ohio
Current Conditions -  °F | °C
As of 1:14 AM on Monday 26 Jan 2015 (Local Time) from KPCW Reporting Station
Overcast Overcast  
Wind Chill:   Ceiling: 3400
Heat Index: 19°   Visibility: 10mi
Dew Point: 12°   Wind: 18mph
Humidity: 74%   Direction: 60°ENE
Pressure: 29.9"   Gusts: NA
Location:  41.27°N, 82.84°W
Report Text: KPCW 260614Z AUTO 06016KT 10SM BKN034 OVC039 M07/M11 A2990 RMK AO2
Loading
Personal Weather Stations






























Interactive Weather Map New forecast layout! Learn more

10-Day Weather Forecast

Advertisements
Track Severe Weather on mobile